sensor_id;sensor_type;location;lat;lon;timestamp;P1;durP1;ratioP1;P2;durP2;ratioP2
71435;SDS011;59251;51.326;12.370;2023-04-01T00:00:23;9.60;;;2.00;;
71435;SDS011;59251;51.326;12.370;2023-04-01T00:02:49;8.15;;;1.27;;
71435;SDS011;59251;51.326;12.370;2023-04-01T00:05:14;5.93;;;0.90;;
71435;SDS011;59251;51.326;12.370;2023-04-01T00:07:41;6.30;;;0.90;;
71435;SDS011;59251;51.326;12.370;2023-04-01T00:10:08;5.47;;;0.70;;
71435;SDS011;59251;51.326;12.370;2023-04-01T00:12:35;4.28;;;0.68;;
71435;SDS011;59251;51.326;12.370;2023-04-01T00:15:01;4.80;;;0.63;;
71435;SDS011;59251;51.326;12.370;2023-04-01T00:17:28;4.40;;;0.50;;
71435;SDS011;59251;51.326;12.370;2023-04-01T00:19:57;5.43;;;0.70;;
71435;SDS011;59251;51.326;12.370;2023-04-01T00:22:23;5.90;;;0.70;;
71435;SDS011;59251;51.326;12.370;2023-04-01T00:24:49;6.35;;;0.95;;
71435;SDS011;59251;51.326;12.370;2023-04-01T00:27:15;6.83;;;1.00;;
71435;SDS011;59251;51.326;12.370;2023-04-01T00:29:44;4.95;;;0.88;;
71435;SDS011;59251;51.326;12.370;2023-04-01T00:32:11;5.45;;;1.00;;
71435;SDS011;59251;51.326;12.370;2023-04-01T00:34:37;7.50;;;1.20;;
71435;SDS011;59251;51.326;12.370;2023-04-01T00:37:02;7.55;;;0.90;;
71435;SDS011;59251;51.326;12.370;2023-04-01T00:39:29;6.20;;;0.70;;
71435;SDS011;59251;51.326;12.370;2023-04-01T00:41:56;6.25;;;0.77;;
71435;SDS011;59251;51.326;12.370;2023-04-01T00:44:31;7.25;;;0.80;;
71435;SDS011;59251;51.326;12.370;2023-04-01T00:46:58;6.93;;;0.80;;
71435;SDS011;59251;51.326;12.370;2023-04-01T00:49:26;5.95;;;0.70;;
71435;SDS011;59251;51.326;12.370;2023-04-01T00:51:56;7.15;;;0.90;;
71435;SDS011;59251;51.326;12.370;2023-04-01T00:54:24;4.15;;;0.52;;
71435;SDS011;59251;51.326;12.370;2023-04-01T00:56:53;5.25;;;0.70;;
71435;SDS011;59251;51.326;12.370;2023-04-01T00:59:25;6.03;;;0.70;;
71435;SDS011;59251;51.326;12.370;2023-04-01T01:01:53;5.40;;;1.25;;
71435;SDS011;59251;51.326;12.370;2023-04-01T01:04:25;5.47;;;0.77;;
71435;SDS011;59251;51.326;12.370;2023-04-01T01:07:05;4.88;;;0.77;;
71435;SDS011;59251;51.326;12.370;2023-04-01T01:09:54;5.47;;;0.75;;
71435;SDS011;59251;51.326;12.370;2023-04-01T01:26:08;5.72;;;0.95;;
71435;SDS011;59251;51.326;12.370;2023-04-01T01:34:13;6.13;;;0.90;;
71435;SDS011;59251;51.326;12.370;2023-04-01T01:36:55;5.78;;;0.90;;
71435;SDS011;59251;51.326;12.370;2023-04-01T01:39:25;5.18;;;0.68;;
71435;SDS011;59251;51.326;12.370;2023-04-01T01:41:55;4.40;;;0.82;;
71435;SDS011;59251;51.326;12.370;2023-04-01T01:44:23;6.63;;;0.90;;
71435;SDS011;59251;51.326;12.370;2023-04-01T01:46:50;6.95;;;0.85;;
71435;SDS011;59251;51.326;12.370;2023-04-01T01:49:16;8.20;;;0.95;;
71435;SDS011;59251;51.326;12.370;2023-04-01T01:51:44;7.05;;;0.85;;
71435;SDS011;59251;51.326;12.370;2023-04-01T01:54:13;4.57;;;0.80;;
71435;SDS011;59251;51.326;12.370;2023-04-01T01:56:39;5.57;;;0.73;;
71435;SDS011;59251;51.326;12.370;2023-04-01T01:59:08;6.65;;;0.80;;
71435;SDS011;59251;51.326;12.370;2023-04-01T02:01:37;6.72;;;0.80;;
71435;SDS011;59251;51.326;12.370;2023-04-01T02:04:07;6.55;;;0.70;;
71435;SDS011;59251;51.326;12.370;2023-04-01T02:06:36;5.10;;;0.70;;
71435;SDS011;59251;51.326;12.370;2023-04-01T02:09:05;5.80;;;0.65;;
71435;SDS011;59251;51.326;12.370;2023-04-01T02:11:40;3.78;;;0.60;;
71435;SDS011;59251;51.326;12.370;2023-04-01T02:14:13;7.05;;;0.70;;
71435;SDS011;59251;51.326;12.370;2023-04-01T02:16:46;5.82;;;0.80;;
71435;SDS011;59251;51.326;12.370;2023-04-01T02:19:16;7.45;;;0.70;;
71435;SDS011;59251;51.326;12.370;2023-04-01T02:21:47;5.25;;;0.65;;
71435;SDS011;59251;51.326;12.370;2023-04-01T02:24:16;4.63;;;0.60;;
71435;SDS011;59251;51.326;12.370;2023-04-01T02:26:42;4.75;;;0.80;;
71435;SDS011;59251;51.326;12.370;2023-04-01T02:29:10;6.55;;;0.82;;
71435;SDS011;59251;51.326;12.370;2023-04-01T02:31:37;5.97;;;0.90;;
71435;SDS011;59251;51.326;12.370;2023-04-01T02:34:02;3.30;;;0.50;;
71435;SDS011;59251;51.326;12.370;2023-04-01T02:36:28;6.20;;;0.90;;
71435;SDS011;59251;51.326;12.370;2023-04-01T02:38:54;5.18;;;0.80;;
71435;SDS011;59251;51.326;12.370;2023-04-01T02:41:24;6.23;;;1.00;;
71435;SDS011;59251;51.326;12.370;2023-04-01T02:43:49;6.38;;;0.90;;
71435;SDS011;59251;51.326;12.370;2023-04-01T02:46:16;7.47;;;1.20;;
71435;SDS011;59251;51.326;12.370;2023-04-01T02:48:41;5.70;;;0.80;;
71435;SDS011;59251;51.326;12.370;2023-04-01T02:51:07;6.43;;;0.90;;
71435;SDS011;59251;51.326;12.370;2023-04-01T02:53:33;5.82;;;0.70;;
71435;SDS011;59251;51.326;12.370;2023-04-01T02:55:58;6.03;;;0.80;;
71435;SDS011;59251;51.326;12.370;2023-04-01T02:58:24;5.70;;;0.60;;
71435;SDS011;59251;51.326;12.370;2023-04-01T03:00:49;5.83;;;0.70;;
71435;SDS011;59251;51.326;12.370;2023-04-01T03:03:15;4.97;;;0.68;;
71435;SDS011;59251;51.326;12.370;2023-04-01T03:05:40;4.80;;;0.70;;
71435;SDS011;59251;51.326;12.370;2023-04-01T03:08:05;3.97;;;0.50;;
71435;SDS011;59251;51.326;12.370;2023-04-01T03:10:31;6.77;;;0.93;;
71435;SDS011;59251;51.326;12.370;2023-04-01T03:12:56;5.70;;;0.80;;
71435;SDS011;59251;51.326;12.370;2023-04-01T03:15:22;4.75;;;0.75;;
71435;SDS011;59251;51.326;12.370;2023-04-01T03:17:47;7.40;;;0.63;;
71435;SDS011;59251;51.326;12.370;2023-04-01T03:20:13;8.47;;;0.83;;
71435;SDS011;59251;51.326;12.370;2023-04-01T03:22:38;6.60;;;0.90;;
71435;SDS011;59251;51.326;12.370;2023-04-01T03:25:04;5.93;;;1.52;;
71435;SDS011;59251;51.326;12.370;2023-04-01T03:27:30;7.28;;;0.63;;
71435;SDS011;59251;51.326;12.370;2023-04-01T03:29:56;5.23;;;0.77;;
71435;SDS011;59251;51.326;12.370;2023-04-01T03:32:21;6.83;;;1.00;;
71435;SDS011;59251;51.326;12.370;2023-04-01T03:34:46;7.20;;;0.70;;
71435;SDS011;59251;51.326;12.370;2023-04-01T03:37:12;6.27;;;1.10;;
71435;SDS011;59251;51.326;12.370;2023-04-01T03:39:37;8.52;;;0.98;;
71435;SDS011;59251;51.326;12.370;2023-04-01T03:42:03;6.47;;;0.67;;
71435;SDS011;59251;51.326;12.370;2023-04-01T03:44:32;8.27;;;1.03;;
71435;SDS011;59251;51.326;12.370;2023-04-01T03:46:58;5.03;;;0.77;;
71435;SDS011;59251;51.326;12.370;2023-04-01T03:49:24;7.50;;;0.82;;
71435;SDS011;59251;51.326;12.370;2023-04-01T03:51:49;5.50;;;0.80;;
71435;SDS011;59251;51.326;12.370;2023-04-01T03:54:15;8.33;;;1.07;;
71435;SDS011;59251;51.326;12.370;2023-04-01T03:56:40;7.90;;;1.00;;
71435;SDS011;59251;51.326;12.370;2023-04-01T03:59:06;7.95;;;1.25;;
71435;SDS011;59251;51.326;12.370;2023-04-01T04:01:32;6.63;;;1.23;;
71435;SDS011;59251;51.326;12.370;2023-04-01T04:03:57;14.20;;;2.58;;
71435;SDS011;59251;51.326;12.370;2023-04-01T04:06:24;6.73;;;1.43;;
71435;SDS011;59251;51.326;12.370;2023-04-01T04:08:50;6.97;;;0.90;;
71435;SDS011;59251;51.326;12.370;2023-04-01T04:11:15;7.37;;;1.17;;
71435;SDS011;59251;51.326;12.370;2023-04-01T04:13:42;7.95;;;1.20;;
71435;SDS011;59251;51.326;12.370;2023-04-01T04:16:08;5.90;;;0.90;;
71435;SDS011;59251;51.326;12.370;2023-04-01T04:18:34;9.20;;;0.95;;
71435;SDS011;59251;51.326;12.370;2023-04-01T04:21:00;6.60;;;1.13;;
71435;SDS011;59251;51.326;12.370;2023-04-01T04:23:26;8.85;;;2.03;;
71435;SDS011;59251;51.326;12.370;2023-04-01T04:25:54;6.07;;;0.93;;
71435;SDS011;59251;51.326;12.370;2023-04-01T04:28:24;5.80;;;0.73;;
71435;SDS011;59251;51.326;12.370;2023-04-01T04:30:50;7.10;;;0.90;;
71435;SDS011;59251;51.326;12.370;2023-04-01T04:33:15;6.93;;;0.80;;
71435;SDS011;59251;51.326;12.370;2023-04-01T04:35:41;7.17;;;0.93;;
71435;SDS011;59251;51.326;12.370;2023-04-01T04:38:06;7.57;;;0.90;;
71435;SDS011;59251;51.326;12.370;2023-04-01T04:40:32;5.47;;;1.53;;
71435;SDS011;59251;51.326;12.370;2023-04-01T04:42:57;5.63;;;0.80;;
71435;SDS011;59251;51.326;12.370;2023-04-01T04:45:22;7.13;;;0.80;;
71435;SDS011;59251;51.326;12.370;2023-04-01T04:47:48;6.97;;;0.97;;
71435;SDS011;59251;51.326;12.370;2023-04-01T04:50:13;6.82;;;1.00;;
71435;SDS011;59251;51.326;12.370;2023-04-01T04:52:38;5.95;;;0.88;;
71435;SDS011;59251;51.326;12.370;2023-04-01T04:55:04;7.00;;;0.90;;
71435;SDS011;59251;51.326;12.370;2023-04-01T04:57:30;6.40;;;1.00;;
71435;SDS011;59251;51.326;12.370;2023-04-01T04:59:55;4.37;;;0.67;;
71435;SDS011;59251;51.326;12.370;2023-04-01T05:02:21;5.27;;;0.80;;
71435;SDS011;59251;51.326;12.370;2023-04-01T05:04:46;7.50;;;1.00;;
71435;SDS011;59251;51.326;12.370;2023-04-01T05:07:11;6.93;;;0.90;;
71435;SDS011;59251;51.326;12.370;2023-04-01T05:09:37;4.75;;;0.82;;
71435;SDS011;59251;51.326;12.370;2023-04-01T05:12:02;6.82;;;1.02;;
71435;SDS011;59251;51.326;12.370;2023-04-01T05:14:28;5.30;;;0.60;;
71435;SDS011;59251;51.326;12.370;2023-04-01T05:16:53;5.47;;;0.80;;
71435;SDS011;59251;51.326;12.370;2023-04-01T05:19:19;7.75;;;1.10;;
71435;SDS011;59251;51.326;12.370;2023-04-01T05:21:44;6.20;;;0.90;;
71435;SDS011;59251;51.326;12.370;2023-04-01T05:24:10;6.33;;;0.90;;
71435;SDS011;59251;51.326;12.370;2023-04-01T05:26:35;7.10;;;0.80;;
71435;SDS011;59251;51.326;12.370;2023-04-01T05:29:02;8.30;;;1.42;;
71435;SDS011;59251;51.326;12.370;2023-04-01T05:31:28;7.10;;;1.00;;
71435;SDS011;59251;51.326;12.370;2023-04-01T05:33:54;7.30;;;1.10;;
71435;SDS011;59251;51.326;12.370;2023-04-01T05:36:19;8.25;;;0.88;;
71435;SDS011;59251;51.326;12.370;2023-04-01T05:38:45;5.20;;;0.90;;
71435;SDS011;59251;51.326;12.370;2023-04-01T05:41:11;7.90;;;1.27;;
71435;SDS011;59251;51.326;12.370;2023-04-01T05:43:37;5.70;;;0.93;;
71435;SDS011;59251;51.326;12.370;2023-04-01T05:46:03;8.15;;;1.00;;
71435;SDS011;59251;51.326;12.370;2023-04-01T05:48:29;5.65;;;0.90;;
71435;SDS011;59251;51.326;12.370;2023-04-01T05:50:55;4.10;;;0.60;;
71435;SDS011;59251;51.326;12.370;2023-04-01T05:53:20;7.13;;;1.00;;
71435;SDS011;59251;51.326;12.370;2023-04-01T05:55:45;6.17;;;0.87;;
71435;SDS011;59251;51.326;12.370;2023-04-01T05:58:11;4.78;;;0.77;;
71435;SDS011;59251;51.326;12.370;2023-04-01T06:00:36;7.25;;;0.88;;
71435;SDS011;59251;51.326;12.370;2023-04-01T06:03:01;5.00;;;0.93;;
71435;SDS011;59251;51.326;12.370;2023-04-01T06:05:28;4.87;;;0.90;;
71435;SDS011;59251;51.326;12.370;2023-04-01T06:07:55;5.30;;;0.98;;
71435;SDS011;59251;51.326;12.370;2023-04-01T06:10:35;6.72;;;1.00;;
71435;SDS011;59251;51.326;12.370;2023-04-01T06:18:57;4.85;;;0.65;;
71435;SDS011;59251;51.326;12.370;2023-04-01T06:32:22;5.00;;;0.83;;
71435;SDS011;59251;51.326;12.370;2023-04-01T06:56:44;6.03;;;0.88;;
71435;SDS011;59251;51.326;12.370;2023-04-01T06:59:13;5.13;;;0.60;;
71435;SDS011;59251;51.326;12.370;2023-04-01T07:01:45;5.43;;;0.90;;
71435;SDS011;59251;51.326;12.370;2023-04-01T07:04:23;4.35;;;0.60;;
71435;SDS011;59251;51.326;12.370;2023-04-01T07:06:51;7.88;;;1.00;;
71435;SDS011;59251;51.326;12.370;2023-04-01T07:09:24;6.50;;;0.90;;
71435;SDS011;59251;51.326;12.370;2023-04-01T07:11:53;7.03;;;0.70;;
71435;SDS011;59251;51.326;12.370;2023-04-01T07:14:37;5.47;;;0.65;;
71435;SDS011;59251;51.326;12.370;2023-04-01T07:17:14;5.80;;;0.90;;
71435;SDS011;59251;51.326;12.370;2023-04-01T07:19:59;4.97;;;0.70;;
71435;SDS011;59251;51.326;12.370;2023-04-01T07:22:49;4.65;;;0.70;;
71435;SDS011;59251;51.326;12.370;2023-04-01T07:25:18;7.53;;;0.80;;
71435;SDS011;59251;51.326;12.370;2023-04-01T07:27:47;4.97;;;0.60;;
71435;SDS011;59251;51.326;12.370;2023-04-01T07:30:17;4.65;;;0.57;;
71435;SDS011;59251;51.326;12.370;2023-04-01T07:32:47;6.47;;;0.80;;
71435;SDS011;59251;51.326;12.370;2023-04-01T07:45:50;5.53;;;0.60;;
71435;SDS011;59251;51.326;12.370;2023-04-01T07:48:26;7.18;;;0.68;;
71435;SDS011;59251;51.326;12.370;2023-04-01T07:51:08;4.30;;;0.57;;
71435;SDS011;59251;51.326;12.370;2023-04-01T08:01:49;4.75;;;0.40;;
71435;SDS011;59251;51.326;12.370;2023-04-01T08:07:23;3.80;;;0.45;;
71435;SDS011;59251;51.326;12.370;2023-04-01T08:15:47;4.30;;;0.50;;
71435;SDS011;59251;51.326;12.370;2023-04-01T08:20:59;4.65;;;0.52;;
71435;SDS011;59251;51.326;12.370;2023-04-01T08:23:31;6.22;;;0.68;;
71435;SDS011;59251;51.326;12.370;2023-04-01T08:28:42;4.50;;;0.50;;
71435;SDS011;59251;51.326;12.370;2023-04-01T08:31:13;8.17;;;1.00;;
71435;SDS011;59251;51.326;12.370;2023-04-01T08:33:48;4.65;;;0.43;;
71435;SDS011;59251;51.326;12.370;2023-04-01T08:36:22;6.43;;;0.50;;
71435;SDS011;59251;51.326;12.370;2023-04-01T08:39:02;2.97;;;0.40;;
71435;SDS011;59251;51.326;12.370;2023-04-01T08:52:27;5.00;;;0.40;;
71435;SDS011;59251;51.326;12.370;2023-04-01T08:57:49;5.40;;;0.60;;
71435;SDS011;59251;51.326;12.370;2023-04-01T09:00:33;4.90;;;0.98;;
71435;SDS011;59251;51.326;12.370;2023-04-01T09:03:19;5.00;;;0.50;;
71435;SDS011;59251;51.326;12.370;2023-04-01T09:15:00;4.35;;;0.60;;
71435;SDS011;59251;51.326;12.370;2023-04-01T09:17:36;4.78;;;0.68;;
71435;SDS011;59251;51.326;12.370;2023-04-01T09:31:04;4.30;;;0.65;;
71435;SDS011;59251;51.326;12.370;2023-04-01T09:39:16;4.53;;;0.50;;
71435;SDS011;59251;51.326;12.370;2023-04-01T10:18:39;4.57;;;0.60;;
71435;SDS011;59251;51.326;12.370;2023-04-01T11:06:15;3.45;;;0.38;;
71435;SDS011;59251;51.326;12.370;2023-04-01T11:26:47;2.75;;;0.30;;
71435;SDS011;59251;51.326;12.370;2023-04-01T11:32:22;3.38;;;0.35;;
71435;SDS011;59251;51.326;12.370;2023-04-01T11:34:56;3.70;;;0.40;;
71435;SDS011;59251;51.326;12.370;2023-04-01T11:37:52;3.15;;;0.40;;
71435;SDS011;59251;51.326;12.370;2023-04-01T11:46:10;1.75;;;0.20;;
71435;SDS011;59251;51.326;12.370;2023-04-01T12:11:15;3.30;;;0.40;;
71435;SDS011;59251;51.326;12.370;2023-04-01T12:16:26;2.53;;;0.30;;
71435;SDS011;59251;51.326;12.370;2023-04-01T12:41:08;4.93;;;1.23;;
71435;SDS011;59251;51.326;12.370;2023-04-01T12:52:13;3.10;;;0.32;;
71435;SDS011;59251;51.326;12.370;2023-04-01T13:05:59;3.00;;;0.30;;
71435;SDS011;59251;51.326;12.370;2023-04-01T13:19:58;3.95;;;0.50;;
71435;SDS011;59251;51.326;12.370;2023-04-01T13:22:48;4.95;;;0.65;;
71435;SDS011;59251;51.326;12.370;2023-04-01T13:31:10;2.55;;;0.30;;
71435;SDS011;59251;51.326;12.370;2023-04-01T13:44:46;3.83;;;0.40;;
71435;SDS011;59251;51.326;12.370;2023-04-01T13:47:28;3.95;;;0.40;;
71435;SDS011;59251;51.326;12.370;2023-04-01T13:56:19;3.63;;;0.32;;
71435;SDS011;59251;51.326;12.370;2023-04-01T13:58:49;4.90;;;0.60;;
71435;SDS011;59251;51.326;12.370;2023-04-01T14:17:31;2.78;;;0.30;;
71435;SDS011;59251;51.326;12.370;2023-04-01T14:25:54;4.28;;;0.57;;
71435;SDS011;59251;51.326;12.370;2023-04-01T14:50:53;3.28;;;0.50;;
71435;SDS011;59251;51.326;12.370;2023-04-01T14:53:27;4.47;;;0.60;;
71435;SDS011;59251;51.326;12.370;2023-04-01T14:55:57;3.03;;;0.40;;
71435;SDS011;59251;51.326;12.370;2023-04-01T14:58:25;3.63;;;0.50;;
71435;SDS011;59251;51.326;12.370;2023-04-01T15:01:17;3.53;;;0.50;;
71435;SDS011;59251;51.326;12.370;2023-04-01T15:04:20;4.05;;;0.50;;
71435;SDS011;59251;51.326;12.370;2023-04-01T15:25:59;5.07;;;0.60;;
71435;SDS011;59251;51.326;12.370;2023-04-01T15:32:13;5.85;;;1.00;;
71435;SDS011;59251;51.326;12.370;2023-04-01T15:45:39;5.50;;;1.00;;
71435;SDS011;59251;51.326;12.370;2023-04-01T15:48:22;3.97;;;0.60;;
71435;SDS011;59251;51.326;12.370;2023-04-01T15:57:13;3.75;;;0.45;;
71435;SDS011;59251;51.326;12.370;2023-04-01T16:02:49;6.07;;;0.77;;
71435;SDS011;59251;51.326;12.370;2023-04-01T16:14:07;4.38;;;0.50;;
71435;SDS011;59251;51.326;12.370;2023-04-01T16:27:06;4.65;;;0.80;;
71435;SDS011;59251;51.326;12.370;2023-04-01T16:29:38;4.20;;;0.70;;
71435;SDS011;59251;51.326;12.370;2023-04-01T16:45:54;5.22;;;1.10;;
71435;SDS011;59251;51.326;12.370;2023-04-01T16:48:28;5.13;;;1.30;;
71435;SDS011;59251;51.326;12.370;2023-04-01T16:51:17;5.78;;;1.38;;
71435;SDS011;59251;51.326;12.370;2023-04-01T16:53:47;6.05;;;1.55;;
71435;SDS011;59251;51.326;12.370;2023-04-01T16:56:30;5.30;;;1.00;;
71435;SDS011;59251;51.326;12.370;2023-04-01T16:59:08;7.57;;;1.60;;
71435;SDS011;59251;51.326;12.370;2023-04-01T17:02:02;6.03;;;1.00;;
71435;SDS011;59251;51.326;12.370;2023-04-01T17:05:01;5.88;;;1.00;;
71435;SDS011;59251;51.326;12.370;2023-04-01T17:07:38;6.40;;;1.20;;
71435;SDS011;59251;51.326;12.370;2023-04-01T17:15:39;5.97;;;1.00;;
71435;SDS011;59251;51.326;12.370;2023-04-01T17:20:57;4.57;;;0.80;;
71435;SDS011;59251;51.326;12.370;2023-04-01T17:23:32;4.40;;;0.73;;
71435;SDS011;59251;51.326;12.370;2023-04-01T17:26:03;5.10;;;1.13;;
71435;SDS011;59251;51.326;12.370;2023-04-01T17:31:46;5.25;;;1.50;;
71435;SDS011;59251;51.326;12.370;2023-04-01T17:42:42;6.50;;;1.20;;
71435;SDS011;59251;51.326;12.370;2023-04-01T17:45:20;5.93;;;0.90;;
71435;SDS011;59251;51.326;12.370;2023-04-01T17:50:30;5.97;;;1.13;;
71435;SDS011;59251;51.326;12.370;2023-04-01T17:53:26;6.90;;;1.63;;
71435;SDS011;59251;51.326;12.370;2023-04-01T18:07:20;7.18;;;2.00;;
71435;SDS011;59251;51.326;12.370;2023-04-01T18:09:57;8.65;;;2.85;;
71435;SDS011;59251;51.326;12.370;2023-04-01T18:18:37;6.87;;;2.20;;
71435;SDS011;59251;51.326;12.370;2023-04-01T18:21:24;8.35;;;2.22;;
71435;SDS011;59251;51.326;12.370;2023-04-01T18:24:05;6.78;;;2.20;;
71435;SDS011;59251;51.326;12.370;2023-04-01T18:26:40;6.53;;;2.30;;
71435;SDS011;59251;51.326;12.370;2023-04-01T18:35:24;8.68;;;3.00;;
71435;SDS011;59251;51.326;12.370;2023-04-01T18:38:12;9.43;;;3.45;;
71435;SDS011;59251;51.326;12.370;2023-04-01T18:43:27;8.35;;;2.80;;
71435;SDS011;59251;51.326;12.370;2023-04-01T18:49:45;8.82;;;2.90;;
71435;SDS011;59251;51.326;12.370;2023-04-01T18:52:02;8.32;;;2.78;;
71435;SDS011;59251;51.326;12.370;2023-04-01T18:54:43;7.78;;;2.40;;
71435;SDS011;59251;51.326;12.370;2023-04-01T18:57:14;8.10;;;2.30;;
71435;SDS011;59251;51.326;12.370;2023-04-01T19:02:29;7.00;;;2.00;;
71435;SDS011;59251;51.326;12.370;2023-04-01T19:10:13;5.47;;;1.48;;
71435;SDS011;59251;51.326;12.370;2023-04-01T19:15:30;6.97;;;1.80;;
71435;SDS011;59251;51.326;12.370;2023-04-01T19:20:57;7.72;;;2.55;;
71435;SDS011;59251;51.326;12.370;2023-04-01T19:23:35;7.68;;;2.60;;
71435;SDS011;59251;51.326;12.370;2023-04-01T19:26:11;6.72;;;3.35;;
71435;SDS011;59251;51.326;12.370;2023-04-01T19:28:54;7.85;;;3.72;;
71435;SDS011;59251;51.326;12.370;2023-04-01T19:39:31;8.70;;;2.97;;
71435;SDS011;59251;51.326;12.370;2023-04-01T19:52:45;7.53;;;3.40;;
71435;SDS011;59251;51.326;12.370;2023-04-01T20:00:57;9.23;;;3.08;;
71435;SDS011;59251;51.326;12.370;2023-04-01T20:03:34;8.05;;;3.20;;
71435;SDS011;59251;51.326;12.370;2023-04-01T20:06:22;7.82;;;3.13;;
71435;SDS011;59251;51.326;12.370;2023-04-01T20:22:32;9.55;;;4.32;;
71435;SDS011;59251;51.326;12.370;2023-04-01T20:25:19;9.32;;;4.63;;
71435;SDS011;59251;51.326;12.370;2023-04-01T20:36:23;7.90;;;3.38;;
71435;SDS011;59251;51.326;12.370;2023-04-01T20:41:43;9.50;;;4.63;;
71435;SDS011;59251;51.326;12.370;2023-04-01T20:52:33;9.20;;;4.10;;
71435;SDS011;59251;51.326;12.370;2023-04-01T21:00:54;9.03;;;4.53;;
71435;SDS011;59251;51.326;12.370;2023-04-01T21:03:04;9.88;;;3.90;;
71435;SDS011;59251;51.326;12.370;2023-04-01T21:27:54;9.05;;;4.07;;
71435;SDS011;59251;51.326;12.370;2023-04-01T21:33:15;10.47;;;4.97;;
71435;SDS011;59251;51.326;12.370;2023-04-01T21:39:01;9.80;;;4.43;;
71435;SDS011;59251;51.326;12.370;2023-04-01T22:00:29;10.88;;;4.63;;
71435;SDS011;59251;51.326;12.370;2023-04-01T22:03:10;11.73;;;5.20;;
71435;SDS011;59251;51.326;12.370;2023-04-01T22:05:54;12.35;;;6.88;;
71435;SDS011;59251;51.326;12.370;2023-04-01T22:08:40;11.95;;;6.28;;
71435;SDS011;59251;51.326;12.370;2023-04-01T22:16:49;12.23;;;5.90;;
71435;SDS011;59251;51.326;12.370;2023-04-01T22:27:29;11.52;;;4.57;;
71435;SDS011;59251;51.326;12.370;2023-04-01T22:33:10;10.00;;;3.83;;
71435;SDS011;59251;51.326;12.370;2023-04-01T22:44:06;8.83;;;4.30;;
71435;SDS011;59251;51.326;12.370;2023-04-01T22:49:18;11.38;;;3.78;;
71435;SDS011;59251;51.326;12.370;2023-04-01T22:54:39;10.82;;;4.10;;
71435;SDS011;59251;51.326;12.370;2023-04-01T22:59:54;8.93;;;4.10;;
71435;SDS011;59251;51.326;12.370;2023-04-01T23:04:54;8.75;;;3.80;;
71435;SDS011;59251;51.326;12.370;2023-04-01T23:07:34;9.90;;;3.53;;
71435;SDS011;59251;51.326;12.370;2023-04-01T23:10:38;8.30;;;3.43;;
71435;SDS011;59251;51.326;12.370;2023-04-01T23:13:11;9.13;;;3.45;;
71435;SDS011;59251;51.326;12.370;2023-04-01T23:15:41;9.65;;;3.67;;
71435;SDS011;59251;51.326;12.370;2023-04-01T23:28:59;8.48;;;3.58;;
71435;SDS011;59251;51.326;12.370;2023-04-01T23:31:36;7.93;;;3.67;;
71435;SDS011;59251;51.326;12.370;2023-04-01T23:36:41;8.87;;;3.13;;
71435;SDS011;59251;51.326;12.370;2023-04-01T23:39:17;8.52;;;2.88;;
71435;SDS011;59251;51.326;12.370;2023-04-01T23:41:56;9.52;;;4.03;;
71435;SDS011;59251;51.326;12.370;2023-04-01T23:44:27;7.38;;;3.20;;
71435;SDS011;59251;51.326;12.370;2023-04-01T23:46:53;9.35;;;4.28;;
71435;SDS011;59251;51.326;12.370;2023-04-01T23:49:30;10.37;;;4.30;;
71435;SDS011;59251;51.326;12.370;2023-04-01T23:52:09;10.88;;;4.22;;
71435;SDS011;59251;51.326;12.370;2023-04-01T23:54:41;9.00;;;4.13;;
71435;SDS011;59251;51.326;12.370;2023-04-01T23:57:14;9.38;;;4.30;;
71435;SDS011;59251;51.326;12.370;2023-04-01T23:59:43;10.88;;;4.22;;
